sensor_id;sensor_type;location;lat;lon;timestamp;P1;durP1;ratioP1;P2;durP2;ratioP2
72951;SDS011;61102;51.956;5.878;2022-10-16T00:00:23;1.50;;;0.50;;
72951;SDS011;61102;51.956;5.878;2022-10-16T00:02:50;5.28;;;0.85;;
72951;SDS011;61102;51.956;5.878;2022-10-16T00:05:16;3.88;;;0.73;;
72951;SDS011;61102;51.956;5.878;2022-10-16T00:07:43;4.00;;;0.68;;
72951;SDS011;61102;51.956;5.878;2022-10-16T00:10:10;3.30;;;0.77;;
72951;SDS011;61102;51.956;5.878;2022-10-16T00:12:38;3.60;;;0.70;;
72951;SDS011;61102;51.956;5.878;2022-10-16T00:17:32;2.47;;;0.68;;
72951;SDS011;61102;51.956;5.878;2022-10-16T00:19:58;4.00;;;0.88;;
72951;SDS011;61102;51.956;5.878;2022-10-16T00:22:24;3.05;;;0.73;;
72951;SDS011;61102;51.956;5.878;2022-10-16T00:24:54;2.85;;;0.80;;
72951;SDS011;61102;51.956;5.878;2022-10-16T00:27:25;4.07;;;0.70;;
72951;SDS011;61102;51.956;5.878;2022-10-16T00:29:52;3.60;;;0.80;;
72951;SDS011;61102;51.956;5.878;2022-10-16T00:32:19;3.40;;;0.70;;
72951;SDS011;61102;51.956;5.878;2022-10-16T00:34:46;3.00;;;0.70;;
72951;SDS011;61102;51.956;5.878;2022-10-16T00:37:15;3.10;;;0.57;;
72951;SDS011;61102;51.956;5.878;2022-10-16T00:39:42;4.18;;;1.00;;
72951;SDS011;61102;51.956;5.878;2022-10-16T00:44:45;2.08;;;0.50;;
72951;SDS011;61102;51.956;5.878;2022-10-16T00:47:26;2.80;;;0.80;;
72951;SDS011;61102;51.956;5.878;2022-10-16T00:50:02;2.78;;;0.70;;
72951;SDS011;61102;51.956;5.878;2022-10-16T00:52:34;2.83;;;0.57;;
72951;SDS011;61102;51.956;5.878;2022-10-16T00:55:03;1.40;;;0.52;;
72951;SDS011;61102;51.956;5.878;2022-10-16T00:57:33;3.67;;;0.60;;
72951;SDS011;61102;51.956;5.878;2022-10-16T01:02:27;2.35;;;0.50;;
72951;SDS011;61102;51.956;5.878;2022-10-16T01:07:34;3.00;;;0.60;;
72951;SDS011;61102;51.956;5.878;2022-10-16T01:13:10;3.75;;;0.90;;
72951;SDS011;61102;51.956;5.878;2022-10-16T01:21:04;2.08;;;0.50;;
72951;SDS011;61102;51.956;5.878;2022-10-16T01:27:08;3.10;;;0.80;;
72951;SDS011;61102;51.956;5.878;2022-10-16T01:29:39;3.53;;;0.95;;
72951;SDS011;61102;51.956;5.878;2022-10-16T01:32:19;3.50;;;0.90;;
72951;SDS011;61102;51.956;5.878;2022-10-16T01:35:43;1.95;;;0.70;;
72951;SDS011;61102;51.956;5.878;2022-10-16T01:37:48;2.55;;;0.70;;
72951;SDS011;61102;51.956;5.878;2022-10-16T01:40:40;0.98;;;0.40;;
72951;SDS011;61102;51.956;5.878;2022-10-16T01:43:15;2.55;;;0.90;;
72951;SDS011;61102;51.956;5.878;2022-10-16T01:45:45;3.00;;;0.80;;
72951;SDS011;61102;51.956;5.878;2022-10-16T01:48:19;2.03;;;0.70;;
72951;SDS011;61102;51.956;5.878;2022-10-16T01:51:06;3.10;;;0.80;;
72951;SDS011;61102;51.956;5.878;2022-10-16T01:53:36;2.53;;;0.75;;
72951;SDS011;61102;51.956;5.878;2022-10-16T01:56:03;2.42;;;0.70;;
72951;SDS011;61102;51.956;5.878;2022-10-16T01:58:33;3.25;;;0.93;;
72951;SDS011;61102;51.956;5.878;2022-10-16T02:01:03;2.92;;;0.90;;
72951;SDS011;61102;51.956;5.878;2022-10-16T02:03:34;3.17;;;0.80;;
72951;SDS011;61102;51.956;5.878;2022-10-16T02:09:09;1.73;;;0.60;;
72951;SDS011;61102;51.956;5.878;2022-10-16T02:11:37;1.67;;;0.57;;
72951;SDS011;61102;51.956;5.878;2022-10-16T02:14:05;2.10;;;0.70;;
72951;SDS011;61102;51.956;5.878;2022-10-16T02:16:43;1.92;;;0.70;;
72951;SDS011;61102;51.956;5.878;2022-10-16T02:19:14;1.98;;;0.75;;
72951;SDS011;61102;51.956;5.878;2022-10-16T02:21:43;2.20;;;0.77;;
72951;SDS011;61102;51.956;5.878;2022-10-16T02:29:23;2.63;;;0.73;;
72951;SDS011;61102;51.956;5.878;2022-10-16T02:31:52;1.85;;;0.70;;
72951;SDS011;61102;51.956;5.878;2022-10-16T02:34:25;1.65;;;0.60;;
72951;SDS011;61102;51.956;5.878;2022-10-16T02:36:54;2.60;;;0.80;;
72951;SDS011;61102;51.956;5.878;2022-10-16T02:41:47;2.00;;;0.52;;
72951;SDS011;61102;51.956;5.878;2022-10-16T02:44:15;2.17;;;0.50;;
72951;SDS011;61102;51.956;5.878;2022-10-16T02:46:41;1.70;;;0.60;;
72951;SDS011;61102;51.956;5.878;2022-10-16T02:49:07;1.88;;;0.60;;
72951;SDS011;61102;51.956;5.878;2022-10-16T02:51:33;2.05;;;0.60;;
72951;SDS011;61102;51.956;5.878;2022-10-16T02:54:00;4.10;;;0.52;;
72951;SDS011;61102;51.956;5.878;2022-10-16T02:56:26;1.92;;;0.60;;
72951;SDS011;61102;51.956;5.878;2022-10-16T02:58:52;2.38;;;0.70;;
72951;SDS011;61102;51.956;5.878;2022-10-16T03:01:19;1.23;;;0.50;;
72951;SDS011;61102;51.956;5.878;2022-10-16T03:03:45;1.63;;;0.60;;
72951;SDS011;61102;51.956;5.878;2022-10-16T03:06:11;1.85;;;0.60;;
72951;SDS011;61102;51.956;5.878;2022-10-16T03:08:37;1.42;;;0.60;;
72951;SDS011;61102;51.956;5.878;2022-10-16T03:11:04;2.58;;;0.60;;
72951;SDS011;61102;51.956;5.878;2022-10-16T03:13:30;1.75;;;0.52;;
72951;SDS011;61102;51.956;5.878;2022-10-16T03:15:56;2.13;;;0.60;;
72951;SDS011;61102;51.956;5.878;2022-10-16T03:18:22;2.17;;;0.60;;
72951;SDS011;61102;51.956;5.878;2022-10-16T03:20:50;1.92;;;0.50;;
72951;SDS011;61102;51.956;5.878;2022-10-16T03:23:16;1.40;;;0.40;;
72951;SDS011;61102;51.956;5.878;2022-10-16T03:25:42;3.08;;;0.60;;
72951;SDS011;61102;51.956;5.878;2022-10-16T03:28:08;3.08;;;0.60;;
72951;SDS011;61102;51.956;5.878;2022-10-16T03:30:34;1.48;;;0.60;;
72951;SDS011;61102;51.956;5.878;2022-10-16T03:33:00;2.15;;;0.60;;
72951;SDS011;61102;51.956;5.878;2022-10-16T03:35:27;1.85;;;0.50;;
72951;SDS011;61102;51.956;5.878;2022-10-16T03:37:53;1.80;;;0.60;;
72951;SDS011;61102;51.956;5.878;2022-10-16T03:40:19;1.15;;;0.50;;
72951;SDS011;61102;51.956;5.878;2022-10-16T03:42:45;1.48;;;0.47;;
72951;SDS011;61102;51.956;5.878;2022-10-16T03:45:11;2.13;;;0.63;;
72951;SDS011;61102;51.956;5.878;2022-10-16T03:47:38;4.03;;;0.52;;
72951;SDS011;61102;51.956;5.878;2022-10-16T03:50:04;2.47;;;0.52;;
72951;SDS011;61102;51.956;5.878;2022-10-16T03:52:31;3.25;;;0.73;;
72951;SDS011;61102;51.956;5.878;2022-10-16T03:54:58;1.08;;;0.40;;
72951;SDS011;61102;51.956;5.878;2022-10-16T03:57:24;2.70;;;0.60;;
72951;SDS011;61102;51.956;5.878;2022-10-16T03:59:51;1.05;;;0.50;;
72951;SDS011;61102;51.956;5.878;2022-10-16T04:02:17;1.85;;;0.50;;
72951;SDS011;61102;51.956;5.878;2022-10-16T04:04:43;2.65;;;0.50;;
72951;SDS011;61102;51.956;5.878;2022-10-16T04:07:09;2.40;;;0.70;;
72951;SDS011;61102;51.956;5.878;2022-10-16T04:09:35;1.63;;;0.55;;
72951;SDS011;61102;51.956;5.878;2022-10-16T04:12:03;1.92;;;0.60;;
72951;SDS011;61102;51.956;5.878;2022-10-16T04:14:29;0.75;;;0.30;;
72951;SDS011;61102;51.956;5.878;2022-10-16T04:16:55;1.17;;;0.50;;
72951;SDS011;61102;51.956;5.878;2022-10-16T04:19:21;2.15;;;0.70;;
72951;SDS011;61102;51.956;5.878;2022-10-16T04:21:48;2.85;;;0.60;;
72951;SDS011;61102;51.956;5.878;2022-10-16T04:24:14;4.82;;;0.60;;
72951;SDS011;61102;51.956;5.878;2022-10-16T04:26:40;2.80;;;0.60;;
72951;SDS011;61102;51.956;5.878;2022-10-16T04:29:06;0.98;;;0.40;;
72951;SDS011;61102;51.956;5.878;2022-10-16T04:31:33;2.72;;;0.75;;
72951;SDS011;61102;51.956;5.878;2022-10-16T04:33:59;2.72;;;0.70;;
72951;SDS011;61102;51.956;5.878;2022-10-16T04:36:25;2.15;;;0.50;;
72951;SDS011;61102;51.956;5.878;2022-10-16T04:38:52;2.40;;;0.60;;
72951;SDS011;61102;51.956;5.878;2022-10-16T04:41:18;1.90;;;0.50;;
72951;SDS011;61102;51.956;5.878;2022-10-16T04:43:44;3.10;;;0.60;;
72951;SDS011;61102;51.956;5.878;2022-10-16T04:46:10;2.25;;;0.70;;
72951;SDS011;61102;51.956;5.878;2022-10-16T04:48:37;2.63;;;0.60;;
72951;SDS011;61102;51.956;5.878;2022-10-16T04:51:03;1.48;;;0.50;;
72951;SDS011;61102;51.956;5.878;2022-10-16T04:53:29;1.38;;;0.50;;
72951;SDS011;61102;51.956;5.878;2022-10-16T04:55:55;1.95;;;0.50;;
72951;SDS011;61102;51.956;5.878;2022-10-16T04:58:22;2.33;;;0.57;;
72951;SDS011;61102;51.956;5.878;2022-10-16T05:00:48;1.90;;;0.52;;
72951;SDS011;61102;51.956;5.878;2022-10-16T05:03:15;2.17;;;0.55;;
72951;SDS011;61102;51.956;5.878;2022-10-16T05:05:44;1.92;;;0.60;;
72951;SDS011;61102;51.956;5.878;2022-10-16T05:08:12;1.38;;;0.50;;
72951;SDS011;61102;51.956;5.878;2022-10-16T05:10:40;4.65;;;0.70;;
72951;SDS011;61102;51.956;5.878;2022-10-16T05:13:08;2.38;;;0.50;;
72951;SDS011;61102;51.956;5.878;2022-10-16T05:15:34;1.25;;;0.43;;
72951;SDS011;61102;51.956;5.878;2022-10-16T05:18:00;1.02;;;0.43;;
72951;SDS011;61102;51.956;5.878;2022-10-16T05:20:26;1.95;;;0.57;;
72951;SDS011;61102;51.956;5.878;2022-10-16T05:22:52;4.15;;;0.57;;
72951;SDS011;61102;51.956;5.878;2022-10-16T05:25:18;1.75;;;0.60;;
72951;SDS011;61102;51.956;5.878;2022-10-16T05:27:48;2.30;;;0.57;;
72951;SDS011;61102;51.956;5.878;2022-10-16T05:30:15;1.05;;;0.47;;
72951;SDS011;61102;51.956;5.878;2022-10-16T05:32:48;1.15;;;0.40;;
72951;SDS011;61102;51.956;5.878;2022-10-16T05:35:16;1.50;;;0.50;;
72951;SDS011;61102;51.956;5.878;2022-10-16T05:37:44;0.70;;;0.35;;
72951;SDS011;61102;51.956;5.878;2022-10-16T05:40:10;1.27;;;0.50;;
72951;SDS011;61102;51.956;5.878;2022-10-16T05:42:37;1.60;;;0.50;;
72951;SDS011;61102;51.956;5.878;2022-10-16T05:45:04;1.95;;;0.60;;
72951;SDS011;61102;51.956;5.878;2022-10-16T05:47:32;1.20;;;0.40;;
72951;SDS011;61102;51.956;5.878;2022-10-16T05:49:58;2.55;;;0.60;;
72951;SDS011;61102;51.956;5.878;2022-10-16T05:52:24;0.60;;;0.40;;
72951;SDS011;61102;51.956;5.878;2022-10-16T05:57:17;1.88;;;0.57;;
72951;SDS011;61102;51.956;5.878;2022-10-16T05:59:44;2.88;;;0.65;;
72951;SDS011;61102;51.956;5.878;2022-10-16T06:02:11;1.83;;;0.60;;
72951;SDS011;61102;51.956;5.878;2022-10-16T06:04:38;4.43;;;0.50;;
72951;SDS011;61102;51.956;5.878;2022-10-16T06:07:04;2.70;;;0.60;;
72951;SDS011;61102;51.956;5.878;2022-10-16T06:09:30;3.13;;;0.55;;
72951;SDS011;61102;51.956;5.878;2022-10-16T06:11:58;2.58;;;0.60;;
72951;SDS011;61102;51.956;5.878;2022-10-16T06:14:24;1.75;;;0.50;;
72951;SDS011;61102;51.956;5.878;2022-10-16T06:16:50;2.38;;;0.50;;
72951;SDS011;61102;51.956;5.878;2022-10-16T06:19:16;1.65;;;0.50;;
72951;SDS011;61102;51.956;5.878;2022-10-16T06:21:44;2.90;;;0.80;;
72951;SDS011;61102;51.956;5.878;2022-10-16T06:24:10;1.98;;;0.55;;
72951;SDS011;61102;51.956;5.878;2022-10-16T06:26:37;3.35;;;0.55;;
72951;SDS011;61102;51.956;5.878;2022-10-16T06:31:30;1.10;;;0.40;;
72951;SDS011;61102;51.956;5.878;2022-10-16T06:33:59;1.63;;;0.60;;
72951;SDS011;61102;51.956;5.878;2022-10-16T06:36:26;1.73;;;0.60;;
72951;SDS011;61102;51.956;5.878;2022-10-16T06:38:53;2.63;;;0.60;;
72951;SDS011;61102;51.956;5.878;2022-10-16T06:41:20;3.03;;;0.75;;
72951;SDS011;61102;51.956;5.878;2022-10-16T06:43:47;2.17;;;0.70;;
72951;SDS011;61102;51.956;5.878;2022-10-16T06:46:15;4.10;;;1.20;;
72951;SDS011;61102;51.956;5.878;2022-10-16T06:48:42;3.15;;;1.00;;
72951;SDS011;61102;51.956;5.878;2022-10-16T06:51:10;2.67;;;0.80;;
72951;SDS011;61102;51.956;5.878;2022-10-16T06:53:40;3.40;;;0.80;;
72951;SDS011;61102;51.956;5.878;2022-10-16T07:01:02;3.75;;;1.00;;
72951;SDS011;61102;51.956;5.878;2022-10-16T07:03:29;3.08;;;0.90;;
72951;SDS011;61102;51.956;5.878;2022-10-16T07:05:55;3.90;;;0.70;;
72951;SDS011;61102;51.956;5.878;2022-10-16T07:08:22;2.53;;;0.73;;
72951;SDS011;61102;51.956;5.878;2022-10-16T07:10:48;3.33;;;0.85;;
72951;SDS011;61102;51.956;5.878;2022-10-16T07:13:23;4.55;;;1.30;;
72951;SDS011;61102;51.956;5.878;2022-10-16T07:15:49;6.50;;;2.00;;
72951;SDS011;61102;51.956;5.878;2022-10-16T07:18:18;4.45;;;1.20;;
72951;SDS011;61102;51.956;5.878;2022-10-16T07:20:44;4.10;;;1.10;;
72951;SDS011;61102;51.956;5.878;2022-10-16T07:23:11;4.03;;;1.10;;
72951;SDS011;61102;51.956;5.878;2022-10-16T07:25:37;4.50;;;1.20;;
72951;SDS011;61102;51.956;5.878;2022-10-16T07:28:03;5.40;;;1.15;;
72951;SDS011;61102;51.956;5.878;2022-10-16T07:30:29;2.65;;;0.80;;
72951;SDS011;61102;51.956;5.878;2022-10-16T07:32:59;4.47;;;1.20;;
72951;SDS011;61102;51.956;5.878;2022-10-16T07:35:25;3.35;;;1.20;;
72951;SDS011;61102;51.956;5.878;2022-10-16T07:37:51;6.13;;;1.40;;
72951;SDS011;61102;51.956;5.878;2022-10-16T07:40:17;4.65;;;1.20;;
72951;SDS011;61102;51.956;5.878;2022-10-16T07:42:43;3.30;;;0.90;;
72951;SDS011;61102;51.956;5.878;2022-10-16T07:45:10;5.13;;;1.10;;
72951;SDS011;61102;51.956;5.878;2022-10-16T07:47:36;3.28;;;1.00;;
72951;SDS011;61102;51.956;5.878;2022-10-16T07:50:02;4.57;;;1.40;;
72951;SDS011;61102;51.956;5.878;2022-10-16T07:52:28;4.32;;;1.30;;
72951;SDS011;61102;51.956;5.878;2022-10-16T07:54:55;6.15;;;1.45;;
72951;SDS011;61102;51.956;5.878;2022-10-16T07:57:24;4.10;;;1.13;;
72951;SDS011;61102;51.956;5.878;2022-10-16T07:59:50;4.43;;;1.10;;
72951;SDS011;61102;51.956;5.878;2022-10-16T08:02:16;3.72;;;0.90;;
72951;SDS011;61102;51.956;5.878;2022-10-16T08:04:42;3.35;;;0.95;;
72951;SDS011;61102;51.956;5.878;2022-10-16T08:07:08;3.30;;;1.00;;
72951;SDS011;61102;51.956;5.878;2022-10-16T08:09:34;4.32;;;1.40;;
72951;SDS011;61102;51.956;5.878;2022-10-16T08:12:01;4.95;;;1.35;;
72951;SDS011;61102;51.956;5.878;2022-10-16T08:14:27;3.50;;;1.10;;
72951;SDS011;61102;51.956;5.878;2022-10-16T08:16:54;6.22;;;1.20;;
72951;SDS011;61102;51.956;5.878;2022-10-16T08:19:20;4.57;;;1.00;;
72951;SDS011;61102;51.956;5.878;2022-10-16T08:21:49;5.70;;;1.20;;
72951;SDS011;61102;51.956;5.878;2022-10-16T08:24:15;3.58;;;0.80;;
72951;SDS011;61102;51.956;5.878;2022-10-16T08:26:41;5.18;;;0.82;;
72951;SDS011;61102;51.956;5.878;2022-10-16T08:29:07;4.40;;;1.00;;
72951;SDS011;61102;51.956;5.878;2022-10-16T08:31:34;3.50;;;0.90;;
72951;SDS011;61102;51.956;5.878;2022-10-16T08:34:00;5.07;;;0.90;;
72951;SDS011;61102;51.956;5.878;2022-10-16T08:36:26;6.22;;;1.50;;
72951;SDS011;61102;51.956;5.878;2022-10-16T08:38:52;4.05;;;0.98;;
72951;SDS011;61102;51.956;5.878;2022-10-16T08:49:27;4.32;;;0.93;;
72951;SDS011;61102;51.956;5.878;2022-10-16T08:51:55;3.63;;;1.00;;
72951;SDS011;61102;51.956;5.878;2022-10-16T08:54:26;4.90;;;0.93;;
72951;SDS011;61102;51.956;5.878;2022-10-16T08:56:57;2.63;;;0.80;;
72951;SDS011;61102;51.956;5.878;2022-10-16T08:59:36;3.50;;;0.70;;
72951;SDS011;61102;51.956;5.878;2022-10-16T09:02:03;4.60;;;0.80;;
72951;SDS011;61102;51.956;5.878;2022-10-16T09:05:02;2.65;;;0.70;;
72951;SDS011;61102;51.956;5.878;2022-10-16T09:10:23;2.97;;;0.70;;
72951;SDS011;61102;51.956;5.878;2022-10-16T09:23:52;7.15;;;0.90;;
72951;SDS011;61102;51.956;5.878;2022-10-16T09:26:23;4.45;;;0.82;;
72951;SDS011;61102;51.956;5.878;2022-10-16T09:28:51;3.80;;;0.75;;
72951;SDS011;61102;51.956;5.878;2022-10-16T09:31:19;4.93;;;0.65;;
72951;SDS011;61102;51.956;5.878;2022-10-16T09:33:59;4.35;;;0.80;;
72951;SDS011;61102;51.956;5.878;2022-10-16T09:36:42;4.28;;;0.98;;
72951;SDS011;61102;51.956;5.878;2022-10-16T09:39:10;3.60;;;0.70;;
72951;SDS011;61102;51.956;5.878;2022-10-16T09:41:38;7.38;;;1.23;;
72951;SDS011;61102;51.956;5.878;2022-10-16T09:52:28;3.45;;;0.55;;
72951;SDS011;61102;51.956;5.878;2022-10-16T09:54:56;5.18;;;0.90;;
72951;SDS011;61102;51.956;5.878;2022-10-16T09:57:23;5.15;;;1.20;;
72951;SDS011;61102;51.956;5.878;2022-10-16T09:59:54;6.22;;;1.00;;
72951;SDS011;61102;51.956;5.878;2022-10-16T10:02:29;4.75;;;0.80;;
72951;SDS011;61102;51.956;5.878;2022-10-16T10:05:06;5.03;;;0.90;;
72951;SDS011;61102;51.956;5.878;2022-10-16T10:07:52;7.20;;;1.33;;
72951;SDS011;61102;51.956;5.878;2022-10-16T10:10:23;6.32;;;1.30;;
72951;SDS011;61102;51.956;5.878;2022-10-16T10:12:53;6.85;;;0.98;;
72951;SDS011;61102;51.956;5.878;2022-10-16T10:15:21;4.53;;;0.88;;
72951;SDS011;61102;51.956;5.878;2022-10-16T10:20:27;4.82;;;1.05;;
72951;SDS011;61102;51.956;5.878;2022-10-16T10:23:21;4.93;;;1.10;;
72951;SDS011;61102;51.956;5.878;2022-10-16T10:26:09;5.85;;;0.80;;
72951;SDS011;61102;51.956;5.878;2022-10-16T10:31:27;8.85;;;1.23;;
72951;SDS011;61102;51.956;5.878;2022-10-16T10:39:42;5.03;;;0.60;;
72951;SDS011;61102;51.956;5.878;2022-10-16T10:42:18;4.20;;;0.77;;
72951;SDS011;61102;51.956;5.878;2022-10-16T10:45:11;6.15;;;0.80;;
72951;SDS011;61102;51.956;5.878;2022-10-16T10:50:45;8.45;;;1.00;;
72951;SDS011;61102;51.956;5.878;2022-10-16T10:58:49;8.32;;;1.00;;
72951;SDS011;61102;51.956;5.878;2022-10-16T11:07:09;8.15;;;1.20;;
72951;SDS011;61102;51.956;5.878;2022-10-16T11:09:44;9.32;;;1.10;;
72951;SDS011;61102;51.956;5.878;2022-10-16T11:12:21;7.15;;;1.00;;
72951;SDS011;61102;51.956;5.878;2022-10-16T11:21:19;5.90;;;0.90;;
72951;SDS011;61102;51.956;5.878;2022-10-16T11:26:16;5.50;;;0.77;;
72951;SDS011;61102;51.956;5.878;2022-10-16T11:28:49;7.70;;;0.80;;
72951;SDS011;61102;51.956;5.878;2022-10-16T11:31:23;7.40;;;1.00;;
72951;SDS011;61102;51.956;5.878;2022-10-16T11:33:58;6.25;;;0.90;;
72951;SDS011;61102;51.956;5.878;2022-10-16T11:36:35;5.28;;;0.70;;
72951;SDS011;61102;51.956;5.878;2022-10-16T11:39:17;8.32;;;0.90;;
72951;SDS011;61102;51.956;5.878;2022-10-16T11:42:09;6.25;;;0.90;;
72951;SDS011;61102;51.956;5.878;2022-10-16T11:50:02;6.65;;;0.73;;
72951;SDS011;61102;51.956;5.878;2022-10-16T11:52:52;6.93;;;1.13;;
72951;SDS011;61102;51.956;5.878;2022-10-16T11:55:31;8.40;;;1.17;;
72951;SDS011;61102;51.956;5.878;2022-10-16T11:58:08;9.57;;;0.90;;
72951;SDS011;61102;51.956;5.878;2022-10-16T12:00:46;6.57;;;0.80;;
72951;SDS011;61102;51.956;5.878;2022-10-16T12:03:24;4.22;;;0.60;;
72951;SDS011;61102;51.956;5.878;2022-10-16T12:08:56;6.57;;;0.93;;
72951;SDS011;61102;51.956;5.878;2022-10-16T12:16:39;6.03;;;0.57;;
72951;SDS011;61102;51.956;5.878;2022-10-16T12:19:19;6.18;;;0.73;;
72951;SDS011;61102;51.956;5.878;2022-10-16T12:21:45;10.65;;;1.02;;
72951;SDS011;61102;51.956;5.878;2022-10-16T12:24:23;8.50;;;1.33;;
72951;SDS011;61102;51.956;5.878;2022-10-16T12:27:04;11.57;;;1.25;;
72951;SDS011;61102;51.956;5.878;2022-10-16T12:29:44;5.70;;;1.10;;
72951;SDS011;61102;51.956;5.878;2022-10-16T12:35:16;7.93;;;1.15;;
72951;SDS011;61102;51.956;5.878;2022-10-16T12:37:46;8.23;;;1.02;;
72951;SDS011;61102;51.956;5.878;2022-10-16T12:40:13;12.15;;;1.40;;
72951;SDS011;61102;51.956;5.878;2022-10-16T12:42:42;3.53;;;0.50;;
72951;SDS011;61102;51.956;5.878;2022-10-16T12:45:28;7.95;;;0.88;;
72951;SDS011;61102;51.956;5.878;2022-10-16T12:47:57;6.20;;;0.77;;
72951;SDS011;61102;51.956;5.878;2022-10-16T12:50:30;6.45;;;0.80;;
72951;SDS011;61102;51.956;5.878;2022-10-16T12:53:20;6.03;;;0.63;;
72951;SDS011;61102;51.956;5.878;2022-10-16T12:58:40;3.92;;;0.88;;
72951;SDS011;61102;51.956;5.878;2022-10-16T13:01:37;4.88;;;0.60;;
72951;SDS011;61102;51.956;5.878;2022-10-16T13:04:20;6.35;;;0.63;;
72951;SDS011;61102;51.956;5.878;2022-10-16T13:13:12;5.93;;;0.80;;
72951;SDS011;61102;51.956;5.878;2022-10-16T13:21:43;5.45;;;0.70;;
72951;SDS011;61102;51.956;5.878;2022-10-16T13:24:19;7.20;;;0.77;;
72951;SDS011;61102;51.956;5.878;2022-10-16T13:30:02;6.05;;;0.90;;
72951;SDS011;61102;51.956;5.878;2022-10-16T13:32:45;4.60;;;0.80;;
72951;SDS011;61102;51.956;5.878;2022-10-16T13:35:35;7.70;;;1.27;;
72951;SDS011;61102;51.956;5.878;2022-10-16T13:43:17;5.93;;;0.85;;
72951;SDS011;61102;51.956;5.878;2022-10-16T13:45:55;5.75;;;0.55;;
72951;SDS011;61102;51.956;5.878;2022-10-16T13:48:29;5.85;;;1.00;;
72951;SDS011;61102;51.956;5.878;2022-10-16T13:50:58;6.63;;;0.80;;
72951;SDS011;61102;51.956;5.878;2022-10-16T13:53:41;5.00;;;0.65;;
72951;SDS011;61102;51.956;5.878;2022-10-16T13:56:12;4.10;;;0.60;;
72951;SDS011;61102;51.956;5.878;2022-10-16T13:58:41;7.35;;;0.88;;
72951;SDS011;61102;51.956;5.878;2022-10-16T14:01:18;5.18;;;0.70;;
72951;SDS011;61102;51.956;5.878;2022-10-16T14:03:48;3.88;;;0.47;;
72951;SDS011;61102;51.956;5.878;2022-10-16T14:06:17;7.40;;;0.85;;
72951;SDS011;61102;51.956;5.878;2022-10-16T14:09:11;6.57;;;0.80;;
72951;SDS011;61102;51.956;5.878;2022-10-16T14:11:55;5.00;;;0.60;;
72951;SDS011;61102;51.956;5.878;2022-10-16T14:14:23;4.20;;;0.73;;
72951;SDS011;61102;51.956;5.878;2022-10-16T14:16:52;3.17;;;0.52;;
72951;SDS011;61102;51.956;5.878;2022-10-16T14:19:20;3.47;;;0.82;;
72951;SDS011;61102;51.956;5.878;2022-10-16T14:21:51;5.13;;;0.80;;
72951;SDS011;61102;51.956;5.878;2022-10-16T14:26:52;4.20;;;0.55;;
72951;SDS011;61102;51.956;5.878;2022-10-16T14:29:21;4.90;;;0.70;;
72951;SDS011;61102;51.956;5.878;2022-10-16T14:31:56;6.28;;;0.80;;
72951;SDS011;61102;51.956;5.878;2022-10-16T14:36:56;4.15;;;0.60;;
72951;SDS011;61102;51.956;5.878;2022-10-16T14:39:24;4.00;;;0.50;;
72951;SDS011;61102;51.956;5.878;2022-10-16T14:41:51;4.25;;;0.40;;
72951;SDS011;61102;51.956;5.878;2022-10-16T14:44:21;5.68;;;0.70;;
72951;SDS011;61102;51.956;5.878;2022-10-16T14:46:55;3.38;;;0.50;;
72951;SDS011;61102;51.956;5.878;2022-10-16T14:49:22;5.47;;;0.63;;
72951;SDS011;61102;51.956;5.878;2022-10-16T14:51:49;3.58;;;0.45;;
72951;SDS011;61102;51.956;5.878;2022-10-16T14:54:16;4.90;;;0.60;;
72951;SDS011;61102;51.956;5.878;2022-10-16T14:56:52;2.42;;;0.43;;
72951;SDS011;61102;51.956;5.878;2022-10-16T15:02:02;5.47;;;0.60;;
72951;SDS011;61102;51.956;5.878;2022-10-16T15:04:53;5.57;;;0.50;;
72951;SDS011;61102;51.956;5.878;2022-10-16T15:07:20;4.35;;;0.60;;
72951;SDS011;61102;51.956;5.878;2022-10-16T15:09:47;2.83;;;0.52;;
72951;SDS011;61102;51.956;5.878;2022-10-16T15:12:13;3.33;;;0.40;;
72951;SDS011;61102;51.956;5.878;2022-10-16T15:14:40;3.05;;;0.50;;
72951;SDS011;61102;51.956;5.878;2022-10-16T15:17:08;1.92;;;0.43;;
72951;SDS011;61102;51.956;5.878;2022-10-16T15:19:43;2.42;;;0.38;;
72951;SDS011;61102;51.956;5.878;2022-10-16T15:22:12;3.65;;;0.47;;
72951;SDS011;61102;51.956;5.878;2022-10-16T15:24:39;2.72;;;0.50;;
72951;SDS011;61102;51.956;5.878;2022-10-16T15:27:05;4.38;;;0.60;;
72951;SDS011;61102;51.956;5.878;2022-10-16T15:29:31;4.13;;;0.40;;
72951;SDS011;61102;51.956;5.878;2022-10-16T15:31:57;2.22;;;0.50;;
72951;SDS011;61102;51.956;5.878;2022-10-16T15:34:25;3.22;;;0.45;;
72951;SDS011;61102;51.956;5.878;2022-10-16T15:36:53;3.60;;;0.52;;
72951;SDS011;61102;51.956;5.878;2022-10-16T15:39:21;4.75;;;0.63;;
72951;SDS011;61102;51.956;5.878;2022-10-16T15:41:47;4.60;;;0.60;;
72951;SDS011;61102;51.956;5.878;2022-10-16T15:44:19;1.90;;;0.30;;
72951;SDS011;61102;51.956;5.878;2022-10-16T15:46:46;3.90;;;0.55;;
72951;SDS011;61102;51.956;5.878;2022-10-16T15:49:12;3.65;;;0.50;;
72951;SDS011;61102;51.956;5.878;2022-10-16T15:51:39;1.55;;;0.40;;
72951;SDS011;61102;51.956;5.878;2022-10-16T15:54:07;4.28;;;0.50;;
72951;SDS011;61102;51.956;5.878;2022-10-16T15:56:33;3.42;;;0.40;;
72951;SDS011;61102;51.956;5.878;2022-10-16T15:59:02;4.40;;;0.85;;
72951;SDS011;61102;51.956;5.878;2022-10-16T16:01:34;5.00;;;0.77;;
72951;SDS011;61102;51.956;5.878;2022-10-16T16:04:01;2.15;;;0.50;;
72951;SDS011;61102;51.956;5.878;2022-10-16T16:06:27;2.17;;;0.45;;
72951;SDS011;61102;51.956;5.878;2022-10-16T16:08:56;6.15;;;0.60;;
72951;SDS011;61102;51.956;5.878;2022-10-16T16:11:25;4.18;;;0.50;;
72951;SDS011;61102;51.956;5.878;2022-10-16T16:13:51;4.35;;;0.70;;
72951;SDS011;61102;51.956;5.878;2022-10-16T16:16:17;3.03;;;0.47;;
72951;SDS011;61102;51.956;5.878;2022-10-16T16:18:45;2.03;;;0.40;;
72951;SDS011;61102;51.956;5.878;2022-10-16T16:21:12;2.45;;;0.55;;
72951;SDS011;61102;51.956;5.878;2022-10-16T16:23:38;2.63;;;0.40;;
72951;SDS011;61102;51.956;5.878;2022-10-16T16:28:39;3.40;;;0.43;;
72951;SDS011;61102;51.956;5.878;2022-10-16T16:31:06;4.05;;;0.60;;
72951;SDS011;61102;51.956;5.878;2022-10-16T16:33:33;2.40;;;0.57;;
72951;SDS011;61102;51.956;5.878;2022-10-16T16:36:01;3.17;;;0.65;;
72951;SDS011;61102;51.956;5.878;2022-10-16T16:38:29;6.00;;;0.70;;
72951;SDS011;61102;51.956;5.878;2022-10-16T16:40:55;3.00;;;0.57;;
72951;SDS011;61102;51.956;5.878;2022-10-16T16:43:22;4.07;;;0.60;;
72951;SDS011;61102;51.956;5.878;2022-10-16T16:45:50;3.70;;;0.70;;
72951;SDS011;61102;51.956;5.878;2022-10-16T16:48:17;4.15;;;0.70;;
72951;SDS011;61102;51.956;5.878;2022-10-16T16:50:43;6.25;;;0.85;;
72951;SDS011;61102;51.956;5.878;2022-10-16T16:53:09;2.88;;;0.50;;
72951;SDS011;61102;51.956;5.878;2022-10-16T16:55:36;3.33;;;0.60;;
72951;SDS011;61102;51.956;5.878;2022-10-16T16:58:02;4.15;;;0.82;;
72951;SDS011;61102;51.956;5.878;2022-10-16T17:00:29;2.95;;;0.68;;
72951;SDS011;61102;51.956;5.878;2022-10-16T17:02:56;2.60;;;0.52;;
72951;SDS011;61102;51.956;5.878;2022-10-16T17:05:22;5.20;;;0.73;;
72951;SDS011;61102;51.956;5.878;2022-10-16T17:07:49;3.85;;;0.63;;
72951;SDS011;61102;51.956;5.878;2022-10-16T17:10:15;5.50;;;0.80;;
72951;SDS011;61102;51.956;5.878;2022-10-16T17:12:41;3.30;;;0.90;;
72951;SDS011;61102;51.956;5.878;2022-10-16T17:15:08;3.80;;;0.82;;
72951;SDS011;61102;51.956;5.878;2022-10-16T17:17:35;4.30;;;0.70;;
72951;SDS011;61102;51.956;5.878;2022-10-16T17:20:02;4.90;;;0.90;;
72951;SDS011;61102;51.956;5.878;2022-10-16T17:22:29;5.85;;;1.05;;
72951;SDS011;61102;51.956;5.878;2022-10-16T17:24:55;3.65;;;1.05;;
72951;SDS011;61102;51.956;5.878;2022-10-16T17:27:21;5.13;;;1.00;;
72951;SDS011;61102;51.956;5.878;2022-10-16T17:29:51;4.15;;;0.90;;
72951;SDS011;61102;51.956;5.878;2022-10-16T17:32:18;4.75;;;0.90;;
72951;SDS011;61102;51.956;5.878;2022-10-16T17:34:46;4.45;;;1.10;;
72951;SDS011;61102;51.956;5.878;2022-10-16T17:37:12;3.70;;;1.00;;
72951;SDS011;61102;51.956;5.878;2022-10-16T17:39:38;5.45;;;1.25;;